createdAt,value
2019-04-27T00:00:16.621Z,9.23
2019-04-27T00:03:06.254Z,9.29
2019-04-27T00:05:40.064Z,9.24
2019-04-27T00:08:11.289Z,9.37
2019-04-27T00:10:59.797Z,9.31
2019-04-27T00:13:29.437Z,9.28
2019-04-27T00:16:13.426Z,9.26
2019-04-27T00:18:45.508Z,9.27
2019-04-27T00:21:33.796Z,9.17
2019-04-27T00:24:03.535Z,9.11
2019-04-27T00:26:33.506Z,9.17
2019-04-27T00:29:03.875Z,9.16
2019-04-27T00:31:33.741Z,9.23
2019-04-27T00:34:03.696Z,9.30
2019-04-27T00:36:35.234Z,9.35
2019-04-27T00:39:24.490Z,9.40
2019-04-27T00:41:53.964Z,9.54
2019-04-27T00:44:23.749Z,9.67
2019-04-27T00:46:53.491Z,9.78
2019-04-27T00:49:23.889Z,9.70
2019-04-27T00:51:53.657Z,9.68
2019-04-27T00:54:23.814Z,9.63
2019-04-27T00:56:55.091Z,9.53
2019-04-27T00:59:43.168Z,9.45
2019-04-27T01:02:29.714Z,9.29
2019-04-27T01:04:59.386Z,9.22
2019-04-27T01:07:28.864Z,9.10
2019-04-27T01:09:58.315Z,9.06
2019-04-27T01:12:27.826Z,9.00
2019-04-27T01:14:57.268Z,8.93
2019-04-27T01:17:26.678Z,8.92
2019-04-27T01:19:56.121Z,8.84
2019-04-27T01:22:25.522Z,8.79
2019-04-27T01:24:55.102Z,8.85
2019-04-27T01:27:26.697Z,8.86
2019-04-27T01:29:56.511Z,8.90
2019-04-27T01:32:26.035Z,8.85
2019-04-27T01:34:56.738Z,8.86
2019-04-27T01:37:26.185Z,8.80
2019-04-27T01:39:55.635Z,8.78
2019-04-27T01:42:25.071Z,8.76
2019-04-27T01:44:54.679Z,8.76
2019-04-27T01:47:24.223Z,8.78
2019-04-27T01:49:53.654Z,8.79
2019-04-27T01:52:23.135Z,8.74
2019-04-27T01:54:52.651Z,8.72
2019-04-27T01:57:22.054Z,8.67
2019-04-27T01:59:51.501Z,8.63
2019-04-27T02:02:39.575Z,8.51
2019-04-27T02:05:29.000Z,8.48
2019-04-27T02:07:59.320Z,8.43
2019-04-27T02:10:29.395Z,8.45
2019-04-27T02:12:58.820Z,8.39
2019-04-27T02:15:29.364Z,8.40
2019-04-27T02:17:59.728Z,8.41
2019-04-27T02:20:30.102Z,8.39
2019-04-27T02:22:59.730Z,8.39
2019-04-27T02:25:29.540Z,8.40
2019-04-27T02:28:00.823Z,8.42
2019-04-27T02:30:47.384Z,8.37
2019-04-27T02:33:34.819Z,8.35
2019-04-27T02:36:04.471Z,8.32
2019-04-27T02:38:33.913Z,8.31
2019-04-27T02:41:04.543Z,8.29
2019-04-27T02:43:35.663Z,8.29
2019-04-27T02:46:05.455Z,8.26
2019-04-27T02:48:51.911Z,8.30
2019-04-27T02:51:09.923Z,8.40
2019-04-27T02:53:55.218Z,8.32
2019-04-27T02:56:25.775Z,8.22
2019-04-27T02:58:55.246Z,8.08
2019-04-27T03:01:30.527Z,7.98
2019-04-27T03:04:00.622Z,7.92
2019-04-27T03:06:30.410Z,7.79
2019-04-27T03:09:00.665Z,7.86
2019-04-27T03:11:31.708Z,7.80
2019-04-27T03:14:29.742Z,7.79
2019-04-27T03:16:52.149Z,7.82
2019-04-27T03:22:29.796Z,7.80
2019-04-27T03:25:14.939Z,7.76
2019-04-27T03:27:43.594Z,7.76
2019-04-27T03:30:15.068Z,7.70
2019-04-27T03:32:44.892Z,7.82
2019-04-27T03:35:14.462Z,7.76
2019-04-27T03:37:44.484Z,7.78
2019-04-27T03:40:14.261Z,7.73
2019-04-27T03:42:45.311Z,7.72
2019-04-27T03:45:14.947Z,7.63
2019-04-27T03:47:44.823Z,7.61
2019-04-27T03:50:16.206Z,7.64
2019-04-27T03:52:50.163Z,7.62
2019-04-27T03:55:42.497Z,7.58
2019-04-27T03:58:21.382Z,7.50
2019-04-27T04:00:52.124Z,7.57
2019-04-27T04:03:21.395Z,7.65
2019-04-27T04:05:51.933Z,7.64
2019-04-27T04:08:21.806Z,7.63
2019-04-27T04:11:02.143Z,7.61
2019-04-27T04:13:33.223Z,7.57
2019-04-27T04:16:07.796Z,7.54
2019-04-27T04:18:56.269Z,7.51
2019-04-27T04:21:25.905Z,7.41
2019-04-27T04:23:55.414Z,7.43
2019-04-27T04:26:24.883Z,7.36
2019-04-27T04:28:54.304Z,7.28
2019-04-27T04:31:23.926Z,7.35
2019-04-27T04:33:53.327Z,7.34
2019-04-27T04:36:22.963Z,7.38
2019-04-27T04:38:52.435Z,7.47
2019-04-27T04:41:26.625Z,7.58
2019-04-27T04:44:12.531Z,7.64
2019-04-27T04:47:00.102Z,7.76
2019-04-27T04:49:29.589Z,7.96
2019-04-27T04:51:59.676Z,8.09
2019-04-27T04:54:29.921Z,8.25
2019-04-27T04:56:59.729Z,8.37
2019-04-27T04:59:29.298Z,8.50
2019-04-27T05:02:01.880Z,8.55
2019-04-27T05:04:30.182Z,8.64
2019-04-27T05:06:59.653Z,8.58
2019-04-27T05:09:30.621Z,8.69
2019-04-27T05:12:00.732Z,8.99
2019-04-27T05:14:30.164Z,9.31
2019-04-27T05:16:59.609Z,9.57
2019-04-27T05:19:29.685Z,9.95
2019-04-27T05:21:59.412Z,10.28
2019-04-27T05:24:29.356Z,10.62
2019-04-27T05:26:59.138Z,10.88
2019-04-27T05:29:29.269Z,11.21
2019-04-27T05:31:59.378Z,11.03
2019-04-27T05:34:29.591Z,10.56
2019-04-27T05:37:01.070Z,10.04
2019-04-27T05:39:30.305Z,10.15
2019-04-27T05:41:59.976Z,10.11
2019-04-27T05:44:50.441Z,10.18
2019-04-27T05:47:21.534Z,10.11
2019-04-27T05:49:52.303Z,10.19
2019-04-27T05:52:29.482Z,10.13
2019-04-27T05:54:59.393Z,9.99
2019-04-27T05:57:31.428Z,10.04
2019-04-27T06:00:02.105Z,10.16
2019-04-27T06:02:33.347Z,10.16
2019-04-27T06:05:02.903Z,10.18
2019-04-27T06:07:32.341Z,10.33
2019-04-27T06:10:02.438Z,10.33
2019-04-27T06:12:32.138Z,10.31
2019-04-27T06:15:01.556Z,10.26
2019-04-27T06:17:31.006Z,10.41
2019-04-27T06:20:00.415Z,10.48
2019-04-27T06:22:29.943Z,10.44
2019-04-27T06:25:00.156Z,10.52
2019-04-27T06:27:31.741Z,10.53
2019-04-27T06:30:01.151Z,10.71
2019-04-27T06:32:30.825Z,10.61
2019-04-27T06:35:00.306Z,10.64
2019-04-27T06:37:30.766Z,10.81
2019-04-27T06:40:00.242Z,10.84
2019-04-27T06:42:30.198Z,11.03
2019-04-27T06:45:00.383Z,11.26
2019-04-27T06:47:30.196Z,11.19
2019-04-27T06:49:59.710Z,11.29
2019-04-27T06:52:29.428Z,11.12
2019-04-27T06:55:00.635Z,10.99
2019-04-27T06:57:30.481Z,10.82
2019-04-27T06:59:59.993Z,10.92
2019-04-27T07:02:29.506Z,11.04
2019-04-27T07:04:59.320Z,11.17
2019-04-27T07:07:29.591Z,11.14
2019-04-27T07:09:59.282Z,11.10
2019-04-27T07:12:29.019Z,11.08
2019-04-27T07:14:59.203Z,11.39
2019-04-27T07:17:29.130Z,11.54
2019-04-27T07:19:59.505Z,11.85
2019-04-27T07:22:29.972Z,11.99
2019-04-27T07:24:59.471Z,11.81
2019-04-27T07:27:29.259Z,12.15
2019-04-27T07:29:59.589Z,12.31
2019-04-27T07:32:29.955Z,12.46
2019-04-27T07:34:59.364Z,12.84
2019-04-27T07:37:29.405Z,12.58
2019-04-27T07:39:59.276Z,12.18
2019-04-27T07:42:31.612Z,12.25
2019-04-27T07:45:03.258Z,12.20
2019-04-27T07:47:32.885Z,12.18
2019-04-27T07:50:02.326Z,11.93
2019-04-27T07:52:31.788Z,12.25
2019-04-27T07:55:01.400Z,12.35
2019-04-27T07:57:31.322Z,12.28
2019-04-27T08:00:00.971Z,12.45
2019-04-27T08:02:30.393Z,12.40
2019-04-27T08:04:59.829Z,12.27
2019-04-27T08:07:29.775Z,12.22
2019-04-27T08:10:01.610Z,12.03
2019-04-27T08:12:30.431Z,11.80
2019-04-27T08:15:00.130Z,11.57
2019-04-27T08:17:30.196Z,11.37
2019-04-27T08:19:59.844Z,11.09
2019-04-27T08:22:29.422Z,10.86
2019-04-27T08:24:59.565Z,10.76
2019-04-27T08:27:32.401Z,10.75
2019-04-27T08:30:12.295Z,10.63
2019-04-27T08:32:43.357Z,10.60
2019-04-27T08:35:13.149Z,10.66
2019-04-27T08:37:42.691Z,10.62
2019-04-27T08:40:12.373Z,10.71
2019-04-27T08:42:41.975Z,10.73
2019-04-27T08:45:12.230Z,10.71
2019-04-27T08:47:41.887Z,10.83
2019-04-27T08:50:11.533Z,10.71
2019-04-27T08:52:41.885Z,10.92
2019-04-27T08:55:13.259Z,10.90
2019-04-27T08:57:42.709Z,10.80
2019-04-27T09:00:12.409Z,10.90
2019-04-27T09:02:46.961Z,11.04
2019-04-27T09:05:13.424Z,11.08
2019-04-27T09:07:50.995Z,11.05
2019-04-27T09:10:22.456Z,11.13
2019-04-27T09:12:56.264Z,11.19
2019-04-27T09:15:33.341Z,11.37
2019-04-27T09:18:03.562Z,11.36
2019-04-27T09:20:38.966Z,11.34
2019-04-27T09:23:09.870Z,11.35
2019-04-27T09:25:39.785Z,11.51
2019-04-27T09:28:10.991Z,11.57
2019-04-27T09:30:40.642Z,11.69
2019-04-27T09:33:10.086Z,11.78
2019-04-27T09:35:39.831Z,11.95
2019-04-27T09:38:09.261Z,11.66
2019-04-27T09:40:38.733Z,11.50
